createdAt,value
2023-03-30T00:00:59.133Z,51.36
2023-03-30T00:03:27.725Z,52.26
2023-03-30T00:06:01.160Z,51.96
2023-03-30T00:08:28.871Z,51.32
2023-03-30T00:11:11.877Z,51.21
2023-03-30T00:13:40.146Z,50.87
2023-03-30T00:16:10.190Z,51.09
2023-03-30T00:18:39.387Z,50.63
2023-03-30T00:21:10.041Z,51.07
2023-03-30T00:23:38.867Z,51.70
2023-03-30T00:26:08.104Z,51.57
2023-03-30T00:28:35.502Z,51.61
2023-03-30T00:31:03.119Z,51.54
2023-03-30T00:33:44.769Z,51.70
2023-03-30T00:36:15.749Z,51.56
2023-03-30T00:38:44.106Z,51.19
2023-03-30T00:41:12.310Z,51.29
2023-03-30T00:44:01.091Z,51.26
2023-03-30T00:46:31.289Z,51.09
2023-03-30T00:49:04.114Z,50.95
2023-03-30T00:51:35.906Z,50.67
2023-03-30T00:54:16.111Z,51.18
2023-03-30T00:56:44.024Z,51.27
2023-03-30T00:59:11.852Z,51.96
2023-03-30T01:01:40.631Z,51.86
2023-03-30T01:04:10.101Z,51.34
2023-03-30T01:06:40.179Z,50.78
2023-03-30T01:09:08.585Z,50.57
2023-03-30T01:11:36.524Z,50.30
2023-03-30T01:14:06.482Z,50.61
2023-03-30T01:16:55.902Z,50.62
2023-03-30T01:19:49.420Z,51.07
2023-03-30T01:22:37.036Z,51.05
2023-03-30T01:25:38.717Z,51.40
2023-03-30T01:28:09.803Z,51.63
2023-03-30T01:30:53.513Z,51.79
2023-03-30T01:33:39.199Z,51.16
2023-03-30T01:36:26.866Z,51.19
2023-03-30T01:39:23.651Z,51.27
2023-03-30T01:41:55.542Z,51.49
2023-03-30T01:45:01.849Z,51.76
2023-03-30T01:47:51.587Z,51.72
2023-03-30T01:50:26.643Z,51.71
2023-03-30T01:53:23.588Z,51.54
2023-03-30T01:55:56.210Z,51.69
2023-03-30T01:58:34.583Z,52.71
2023-03-30T02:01:03.376Z,52.05
2023-03-30T02:03:33.220Z,52.46
2023-03-30T02:06:11.904Z,52.54
2023-03-30T02:08:40.330Z,52.64
2023-03-30T02:11:07.983Z,53.21
2023-03-30T02:13:37.033Z,53.96
2023-03-30T02:16:15.697Z,53.54
2023-03-30T02:18:45.094Z,53.41
2023-03-30T02:21:13.105Z,53.56
2023-03-30T02:23:42.832Z,54.28
2023-03-30T02:26:11.297Z,54.25
2023-03-30T02:28:39.204Z,53.94
2023-03-30T02:31:13.202Z,53.44
2023-03-30T02:33:56.814Z,53.72
2023-03-30T02:37:15.357Z,53.46
2023-03-30T02:40:13.370Z,53.41
2023-03-30T02:42:49.194Z,53.58
2023-03-30T02:45:24.923Z,53.55
2023-03-30T02:48:03.271Z,53.06
2023-03-30T02:50:35.129Z,53.61
2023-03-30T02:53:24.841Z,53.57
2023-03-30T02:56:00.590Z,53.73
2023-03-30T02:58:42.989Z,54.36
2023-03-30T03:01:36.392Z,53.87
2023-03-30T03:04:05.425Z,53.74
2023-03-30T03:06:34.371Z,54.68
2023-03-30T03:09:01.803Z,54.44
2023-03-30T03:11:29.650Z,54.32
2023-03-30T03:13:57.330Z,54.15
2023-03-30T03:16:26.727Z,54.50
2023-03-30T03:18:55.243Z,54.05
2023-03-30T03:21:23.044Z,55.21
2023-03-30T03:23:51.128Z,55.42
2023-03-30T03:26:20.017Z,55.15
2023-03-30T03:28:47.734Z,54.95
2023-03-30T03:31:16.240Z,54.45
2023-03-30T03:33:45.301Z,54.23
2023-03-30T03:36:13.435Z,53.68
2023-03-30T03:38:41.729Z,53.47
2023-03-30T03:41:09.453Z,53.29
2023-03-30T03:43:38.053Z,53.50
2023-03-30T03:46:05.751Z,53.37
2023-03-30T03:48:33.333Z,53.08
2023-03-30T03:51:01.435Z,52.86
2023-03-30T03:53:31.210Z,52.93
2023-03-30T03:55:59.085Z,52.80
2023-03-30T03:58:27.570Z,53.19
2023-03-30T04:00:59.364Z,53.23
2023-03-30T04:03:27.505Z,53.33
2023-03-30T04:05:57.099Z,52.96
2023-03-30T04:08:25.764Z,53.11
2023-03-30T04:10:53.996Z,53.13
2023-03-30T04:13:21.961Z,53.20
2023-03-30T04:15:49.703Z,54.17
2023-03-30T04:18:17.891Z,54.39
2023-03-30T04:20:46.325Z,53.99
2023-03-30T04:23:16.488Z,53.59
2023-03-30T04:25:45.760Z,53.46
2023-03-30T04:28:14.547Z,54.03
2023-03-30T04:30:45.701Z,54.25
2023-03-30T04:33:15.593Z,52.25
2023-03-30T04:35:43.851Z,53.44
2023-03-30T04:38:12.324Z,53.86
2023-03-30T04:40:40.483Z,54.42
2023-03-30T04:43:09.881Z,54.15
2023-03-30T04:45:37.921Z,54.01
2023-03-30T04:48:05.933Z,53.56
2023-03-30T04:50:36.517Z,52.98
2023-03-30T04:53:06.520Z,53.02
2023-03-30T04:55:36.665Z,53.38
2023-03-30T04:58:04.159Z,53.06
2023-03-30T05:00:33.528Z,52.88
2023-03-30T05:03:01.785Z,52.43
2023-03-30T05:05:29.524Z,51.24
2023-03-30T05:07:58.730Z,50.77
2023-03-30T05:10:26.524Z,49.68
2023-03-30T05:12:55.765Z,51.11
2023-03-30T05:15:24.765Z,50.08
2023-03-30T05:17:52.419Z,50.94
2023-03-30T05:20:20.314Z,50.79
2023-03-30T05:22:50.798Z,51.06
2023-03-30T05:25:18.491Z,50.58
2023-03-30T05:27:46.206Z,50.55
2023-03-30T05:30:14.990Z,50.37
2023-03-30T05:32:42.978Z,50.30
2023-03-30T05:35:12.079Z,49.89
2023-03-30T05:37:40.675Z,50.11
2023-03-30T05:40:12.597Z,50.29
2023-03-30T05:42:40.563Z,49.79
2023-03-30T05:45:09.433Z,50.07
2023-03-30T05:47:38.432Z,50.02
2023-03-30T05:50:08.110Z,49.70
2023-03-30T05:52:38.474Z,50.24
2023-03-30T05:55:06.946Z,49.51
2023-03-30T05:57:36.729Z,50.95
2023-03-30T06:00:07.135Z,50.18
2023-03-30T06:02:40.350Z,49.77
2023-03-30T06:05:09.797Z,50.49
2023-03-30T06:07:37.580Z,49.24
2023-03-30T06:10:08.249Z,50.56
2023-03-30T06:12:36.083Z,49.45
2023-03-30T06:15:03.918Z,50.13
2023-03-30T06:17:31.862Z,49.86
2023-03-30T06:20:08.430Z,50.24
2023-03-30T06:22:36.342Z,50.05
2023-03-30T06:25:04.685Z,51.04
2023-03-30T06:27:33.021Z,50.51
2023-03-30T06:30:00.618Z,50.63
2023-03-30T06:32:28.375Z,50.93
2023-03-30T06:34:57.805Z,51.54
2023-03-30T06:37:25.597Z,51.57
2023-03-30T06:39:53.618Z,50.84
2023-03-30T06:42:21.137Z,51.25
2023-03-30T06:44:50.627Z,51.17
2023-03-30T06:47:20.036Z,51.74
2023-03-30T06:49:48.430Z,51.73
2023-03-30T06:52:17.454Z,51.82
2023-03-30T06:54:45.995Z,51.40
2023-03-30T06:57:13.516Z,51.60
2023-03-30T06:59:41.342Z,50.77
2023-03-30T07:02:15.287Z,52.30
2023-03-30T07:04:46.929Z,52.98
2023-03-30T07:07:16.332Z,52.03
2023-03-30T07:09:44.123Z,51.63
2023-03-30T07:12:11.910Z,51.80
2023-03-30T07:14:40.529Z,51.46
2023-03-30T07:17:08.615Z,52.15
2023-03-30T07:19:36.846Z,52.81
2023-03-30T07:22:04.709Z,52.86
2023-03-30T07:24:33.751Z,52.08
2023-03-30T07:27:02.795Z,52.43
2023-03-30T07:29:30.827Z,53.67
2023-03-30T08:28:05.650Z,50.70
2023-03-30T08:30:33.416Z,49.93
2023-03-30T08:33:01.194Z,50.06
2023-03-30T08:35:28.997Z,48.83
2023-03-30T08:37:56.965Z,48.11
2023-03-30T08:40:24.454Z,49.75
2023-03-30T08:43:00.874Z,51.30
2023-03-30T08:45:36.925Z,49.95
2023-03-30T08:48:12.313Z,50.60
2023-03-30T08:50:40.024Z,49.99
2023-03-30T08:53:08.062Z,49.09
2023-03-30T08:55:51.862Z,49.74
2023-03-30T08:58:40.012Z,48.70
2023-03-30T09:01:23.629Z,49.46
2023-03-30T09:04:14.146Z,49.51
2023-03-30T09:07:05.440Z,49.01
2023-03-30T09:09:39.016Z,48.67
2023-03-30T09:12:12.367Z,49.36
2023-03-30T09:14:46.641Z,48.58
2023-03-30T09:17:28.687Z,47.55
2023-03-30T09:20:00.926Z,47.72
2023-03-30T09:22:38.121Z,46.53
2023-03-30T09:25:21.580Z,47.41
2023-03-30T09:27:56.320Z,46.51
2023-03-30T09:30:47.625Z,47.06
2023-03-30T09:33:14.941Z,45.82
2023-03-30T09:35:44.784Z,45.22
2023-03-30T09:38:13.449Z,45.66
2023-03-30T09:41:07.581Z,47.21
2023-03-30T09:43:44.285Z,46.03
2023-03-30T09:46:13.826Z,46.44
2023-03-30T09:48:51.436Z,46.71
2023-03-30T09:51:21.493Z,48.29
2023-03-30T09:53:52.102Z,47.36
2023-03-30T09:56:22.431Z,47.45
2023-03-30T09:58:50.512Z,46.93
2023-03-30T10:01:20.182Z,47.13
2023-03-30T10:04:23.736Z,47.20
2023-03-30T10:06:51.471Z,48.02
2023-03-30T10:09:22.440Z,48.67
2023-03-30T10:11:51.949Z,47.84
2023-03-30T10:14:29.720Z,47.06
2023-03-30T10:16:58.957Z,47.16
2023-03-30T10:19:26.962Z,47.51
2023-03-30T10:21:58.920Z,48.46
2023-03-30T10:24:29.562Z,46.77
2023-03-30T10:27:17.163Z,46.32
2023-03-30T10:29:46.803Z,46.50
2023-03-30T10:32:20.013Z,46.04
2023-03-30T10:34:52.874Z,46.73
2023-03-30T10:37:41.219Z,45.77
2023-03-30T10:40:17.532Z,47.55
2023-03-30T10:42:47.228Z,47.31
2023-03-30T10:45:19.355Z,46.77
2023-03-30T10:48:09.051Z,47.41
2023-03-30T10:50:47.263Z,45.92
2023-03-30T10:53:33.041Z,45.83
2023-03-30T10:56:13.931Z,45.72
2023-03-30T10:59:00.656Z,46.28
2023-03-30T11:01:42.699Z,46.36
2023-03-30T11:04:47.343Z,47.29
2023-03-30T11:07:38.718Z,46.43
2023-03-30T11:10:14.736Z,46.65
2023-03-30T11:12:46.948Z,45.52
2023-03-30T11:15:41.531Z,45.32
2023-03-30T11:18:09.305Z,44.62
2023-03-30T11:20:47.847Z,44.75
2023-03-30T11:23:39.051Z,45.74
2023-03-30T11:26:18.078Z,45.73
2023-03-30T11:29:22.880Z,45.72
2023-03-30T11:32:15.504Z,46.23
2023-03-30T11:34:55.728Z,45.87
2023-03-30T11:37:32.437Z,46.03
2023-03-30T11:40:11.873Z,46.01
2023-03-30T11:42:39.301Z,44.50
2023-03-30T11:45:18.715Z,44.32
2023-03-30T11:48:04.409Z,44.62
2023-03-30T11:50:38.981Z,45.83
2023-03-30T11:53:33.400Z,45.53
2023-03-30T11:56:14.214Z,43.92
2023-03-30T11:58:47.052Z,44.50
2023-03-30T12:01:42.122Z,44.27
2023-03-30T12:04:11.036Z,43.94
2023-03-30T12:06:40.936Z,44.55
2023-03-30T12:09:25.723Z,43.87
2023-03-30T12:12:11.957Z,45.07
2023-03-30T12:15:04.490Z,44.79
2023-03-30T12:18:00.054Z,45.03
2023-03-30T12:20:30.544Z,45.61
2023-03-30T12:23:19.813Z,44.96
2023-03-30T12:25:47.104Z,45.65
2023-03-30T12:28:15.743Z,45.19
2023-03-30T12:30:57.585Z,45.63
2023-03-30T12:33:50.107Z,46.08
2023-03-30T12:36:38.156Z,44.48
2023-03-30T12:39:12.920Z,43.73
2023-03-30T12:41:50.507Z,45.08
2023-03-30T12:44:55.421Z,44.17
2023-03-30T12:47:33.554Z,45.15
2023-03-30T12:50:13.470Z,45.61
2023-03-30T12:53:13.443Z,44.50
2023-03-30T12:55:52.237Z,44.30
2023-03-30T12:58:39.414Z,43.69
2023-03-30T13:01:38.248Z,43.32
2023-03-30T13:04:09.354Z,44.05
2023-03-30T13:06:40.574Z,43.34
2023-03-30T13:09:08.056Z,43.87
2023-03-30T13:11:53.953Z,44.22
2023-03-30T13:14:45.279Z,43.89
2023-03-30T13:17:19.714Z,44.25
2023-03-30T13:23:05.746Z,42.71
2023-03-30T13:26:00.556Z,43.75
2023-03-30T13:28:55.006Z,43.45
2023-03-30T13:31:55.048Z,44.09
2023-03-30T13:34:48.926Z,43.91
2023-03-30T13:37:44.796Z,43.67
2023-03-30T13:40:27.344Z,44.37
2023-03-30T13:43:29.354Z,43.70
2023-03-30T13:46:13.861Z,44.05
2023-03-30T13:48:55.213Z,44.76
2023-03-30T13:51:25.750Z,44.45
2023-03-30T13:53:58.085Z,44.09
2023-03-30T13:56:27.344Z,45.20
2023-03-30T13:59:33.659Z,44.89
2023-03-30T14:02:01.952Z,45.04
2023-03-30T14:04:34.610Z,44.65
2023-03-30T14:07:16.537Z,44.54
2023-03-30T14:10:05.399Z,45.09
2023-03-30T14:12:34.110Z,44.98
2023-03-30T14:15:02.100Z,44.58
2023-03-30T14:17:29.614Z,45.00
2023-03-30T14:20:16.932Z,45.25
2023-03-30T14:22:46.129Z,45.04
2023-03-30T14:25:25.661Z,45.43
2023-03-30T14:27:53.981Z,45.73
2023-03-30T14:30:29.411Z,45.72
2023-03-30T14:33:11.465Z,45.84
2023-03-30T14:35:45.806Z,45.45
2023-03-30T14:38:17.568Z,45.88
2023-03-30T14:40:45.655Z,46.03
2023-03-30T14:43:15.153Z,46.14
2023-03-30T14:45:43.035Z,45.98
2023-03-30T14:48:19.581Z,46.69
2023-03-30T14:50:47.289Z,46.49
2023-03-30T14:53:14.929Z,45.90
2023-03-30T14:55:42.881Z,47.35
2023-03-30T14:58:13.855Z,47.52
2023-03-30T15:00:42.017Z,47.75
2023-03-30T15:03:19.682Z,47.98
2023-03-30T15:05:54.066Z,47.61
2023-03-30T15:08:31.829Z,47.98
2023-03-30T15:11:23.226Z,48.33
2023-03-30T15:13:53.172Z,48.43
2023-03-30T15:16:28.716Z,47.84
2023-03-30T15:18:59.226Z,48.65
2023-03-30T15:21:29.207Z,48.03
2023-03-30T15:23:58.636Z,48.02
2023-03-30T15:26:27.143Z,48.02
2023-03-30T15:28:57.323Z,48.14
2023-03-30T15:31:27.556Z,46.92
2023-03-30T15:33:57.706Z,46.93
2023-03-30T15:36:35.425Z,47.19
2023-03-30T15:39:17.591Z,46.48
2023-03-30T15:41:50.484Z,46.67
2023-03-30T15:44:20.013Z,47.60
2023-03-30T15:46:49.830Z,46.66
2023-03-30T15:49:23.391Z,46.90
2023-03-30T15:51:52.770Z,48.23
2023-03-30T15:54:24.791Z,48.51
2023-03-30T15:57:03.983Z,47.77
2023-03-30T15:59:35.220Z,47.31
2023-03-30T16:02:15.395Z,48.99
2023-03-30T16:05:00.777Z,49.00
2023-03-30T16:07:29.412Z,51.04
2023-03-30T16:09:57.129Z,52.18
2023-03-30T16:12:27.135Z,53.47
2023-03-30T16:14:55.155Z,53.44
2023-03-30T16:17:23.036Z,53.53
2023-03-30T16:19:50.534Z,54.59
2023-03-30T16:22:32.039Z,55.79
2023-03-30T16:25:15.902Z,56.77
2023-03-30T16:28:14.106Z,58.12
2023-03-30T16:30:47.340Z,60.13
2023-03-30T16:33:15.187Z,60.09
2023-03-30T16:35:42.715Z,60.41
2023-03-30T16:38:14.378Z,60.15
2023-03-30T16:40:44.054Z,60.06
2023-03-30T16:43:12.720Z,59.97
2023-03-30T16:45:40.315Z,61.48
2023-03-30T16:48:08.241Z,61.63
2023-03-30T16:50:46.206Z,61.64
2023-03-30T16:53:14.050Z,61.85
2023-03-30T16:55:41.838Z,62.63
2023-03-30T16:58:13.797Z,63.84
2023-03-30T17:00:44.985Z,63.95
2023-03-30T17:03:13.096Z,64.29
2023-03-30T17:05:40.902Z,63.31
2023-03-30T17:08:18.951Z,63.51
2023-03-30T17:10:47.489Z,63.41
2023-03-30T17:13:15.819Z,63.69
2023-03-30T17:15:43.990Z,63.43
2023-03-30T17:18:17.750Z,63.89
2023-03-30T17:20:54.568Z,63.61
2023-03-30T17:23:28.747Z,63.62
2023-03-30T17:25:59.041Z,63.68
2023-03-30T17:28:32.654Z,63.33
2023-03-30T17:31:03.549Z,62.74
2023-03-30T17:33:36.212Z,63.46
2023-03-30T17:36:26.456Z,63.36
2023-03-30T17:38:54.822Z,63.02
2023-03-30T17:41:24.519Z,63.63
2023-03-30T17:43:52.900Z,63.52
2023-03-30T17:46:21.576Z,63.65
2023-03-30T17:48:52.061Z,63.27
2023-03-30T17:51:23.592Z,63.10
2023-03-30T17:53:51.851Z,63.79
2023-03-30T17:56:20.034Z,63.94
2023-03-30T17:58:52.834Z,64.27
2023-03-30T18:01:24.563Z,64.77
2023-03-30T18:03:53.940Z,65.61
2023-03-30T18:06:22.541Z,65.65
2023-03-30T18:08:50.638Z,65.69
2023-03-30T18:11:19.735Z,65.00
2023-03-30T18:13:48.359Z,65.90
2023-03-30T18:16:18.388Z,65.35
2023-03-30T18:18:57.234Z,64.59
2023-03-30T18:25:45.070Z,65.01
2023-03-30T18:28:22.797Z,64.82
2023-03-30T18:30:53.725Z,65.03
2023-03-30T18:33:22.767Z,65.81
2023-03-30T18:35:54.144Z,65.89
2023-03-30T18:38:23.376Z,65.56
2023-03-30T18:40:58.552Z,64.98
2023-03-30T18:43:27.949Z,65.40
2023-03-30T18:46:01.778Z,65.08
2023-03-30T18:48:31.440Z,66.23
2023-03-30T18:51:01.500Z,65.85
2023-03-30T18:53:30.449Z,66.84
2023-03-30T18:56:01.056Z,67.18
2023-03-30T18:58:34.240Z,66.54
2023-03-30T19:01:02.990Z,66.38
2023-03-30T19:03:33.948Z,66.77
2023-03-30T19:06:02.621Z,66.11
2023-03-30T19:08:31.453Z,66.00
2023-03-30T19:11:01.370Z,65.39
2023-03-30T19:13:30.174Z,65.65
2023-03-30T19:15:59.132Z,64.85
2023-03-30T19:18:28.273Z,66.02
2023-03-30T19:20:57.562Z,65.78
2023-03-30T19:23:27.024Z,66.00
2023-03-30T19:25:55.797Z,65.62
2023-03-30T19:28:25.310Z,66.12
2023-03-30T19:30:54.327Z,66.00
2023-03-30T19:33:24.926Z,66.12
2023-03-30T19:35:53.653Z,66.64
2023-03-30T19:38:21.662Z,66.75
2023-03-30T19:40:51.939Z,67.26
2023-03-30T19:43:22.126Z,66.97
2023-03-30T19:45:52.460Z,66.66
2023-03-30T19:48:20.628Z,66.49
2023-03-30T19:50:49.939Z,66.12
2023-03-30T19:53:18.565Z,65.91
2023-03-30T19:55:46.446Z,66.32
2023-03-30T19:58:16.590Z,65.88
2023-03-30T20:00:50.000Z,66.75
2023-03-30T20:03:18.737Z,66.74
2023-03-30T20:05:51.835Z,66.88
2023-03-30T20:08:24.684Z,67.92
2023-03-30T20:10:53.608Z,66.75
2023-03-30T20:13:24.483Z,66.75
2023-03-30T20:15:56.101Z,66.40
2023-03-30T20:18:24.665Z,66.51
2023-03-30T20:20:52.235Z,66.61
2023-03-30T20:23:20.104Z,66.40
2023-03-30T20:25:49.573Z,66.51
2023-03-30T20:28:17.853Z,66.62
2023-03-30T20:30:45.561Z,66.33
2023-03-30T20:33:13.410Z,66.17
2023-03-30T20:35:41.778Z,65.81
2023-03-30T20:38:09.853Z,67.96
2023-03-30T20:40:37.590Z,67.90
2023-03-30T20:43:10.160Z,67.62
2023-03-30T20:45:46.421Z,68.72
2023-03-30T20:48:26.989Z,69.65
2023-03-30T20:50:55.920Z,69.49
2023-03-30T20:53:23.669Z,68.95
2023-03-30T20:55:51.320Z,68.37
2023-03-30T20:58:19.113Z,68.31
2023-03-30T21:00:48.861Z,68.41
2023-03-30T21:03:16.302Z,67.67
2023-03-30T21:05:43.987Z,68.44
2023-03-30T21:08:11.374Z,68.24
2023-03-30T21:10:42.899Z,68.14
2023-03-30T21:13:11.008Z,67.78
2023-03-30T21:15:38.395Z,68.39
2023-03-30T21:18:06.016Z,68.40
2023-03-30T21:20:33.752Z,69.93
2023-03-30T21:23:01.118Z,70.32
2023-03-30T21:25:29.122Z,69.61
2023-03-30T21:27:56.781Z,69.65
2023-03-30T21:30:24.130Z,70.00
2023-03-30T21:32:51.546Z,69.81
2023-03-30T21:35:19.211Z,68.83
2023-03-30T21:37:46.600Z,69.22
2023-03-30T21:40:15.036Z,69.65
2023-03-30T21:42:42.736Z,69.17
2023-03-30T21:45:12.045Z,69.16
2023-03-30T21:47:39.803Z,69.40
2023-03-30T21:50:07.869Z,69.49
2023-03-30T21:52:35.546Z,68.71
2023-03-30T21:55:03.325Z,73.04
2023-03-30T21:57:31.102Z,72.39
2023-03-30T21:59:58.502Z,71.40
2023-03-30T22:02:26.046Z,73.45
2023-03-30T22:04:53.775Z,74.17
2023-03-30T22:07:21.406Z,76.40
2023-03-30T22:09:48.796Z,75.14
2023-03-30T22:12:17.608Z,75.37
2023-03-30T22:14:45.030Z,75.83
2023-03-30T22:17:12.447Z,75.12
2023-03-30T22:19:43.851Z,74.55
2023-03-30T22:22:11.326Z,76.89
2023-03-30T22:24:38.745Z,73.59
2023-03-30T22:27:07.125Z,74.03
2023-03-30T22:29:34.512Z,74.57
2023-03-30T22:32:02.119Z,73.23
2023-03-30T22:34:31.649Z,72.68
2023-03-30T22:36:59.116Z,71.82
2023-03-30T22:39:26.512Z,71.44
2023-03-30T22:41:54.190Z,71.94
2023-03-30T22:44:21.551Z,71.95
2023-03-30T22:46:48.918Z,74.03
2023-03-30T22:49:17.707Z,72.82
2023-03-30T22:51:52.630Z,71.94
2023-03-30T22:54:20.909Z,71.39
2023-03-30T22:56:48.806Z,70.84
2023-03-30T22:59:16.522Z,70.09
2023-03-30T23:01:44.271Z,69.24
2023-03-30T23:04:12.107Z,69.87
2023-03-30T23:06:39.832Z,69.81
2023-03-30T23:09:07.957Z,68.12
2023-03-30T23:11:35.607Z,68.26
2023-03-30T23:14:05.987Z,68.58
2023-03-30T23:16:36.001Z,68.41
2023-03-30T23:19:04.612Z,68.08
2023-03-30T23:21:35.784Z,68.45
2023-03-30T23:24:05.473Z,69.71
2023-03-30T23:26:33.030Z,70.32
2023-03-30T23:29:00.462Z,70.17
2023-03-30T23:31:28.254Z,72.40
2023-03-30T23:33:57.677Z,71.92
2023-03-30T23:36:27.095Z,71.48
2023-03-30T23:38:54.817Z,70.97
2023-03-30T23:41:22.318Z,69.87
2023-03-30T23:43:49.798Z,69.34
2023-03-30T23:46:17.827Z,69.04
2023-03-30T23:48:45.551Z,68.44
2023-03-30T23:51:13.056Z,68.28
2023-03-30T23:53:41.718Z,67.90
2023-03-30T23:56:13.100Z,67.75
2023-03-30T23:58:41.376Z,68.20
